aviador You're here:

PAPB Decoded Metar

POINT BARROW in AK, USA
Report Time2018-06-23 05:53:00
UTC Time2018-06-23 06:09:12
Flight Rules ifr IFR
Wind180° at 07 kt
W.Decomp.*RWY 11: 3.6 kt HW 6.0 kt RCW
W.Rank180° ranks 20
Current wind is below 180° avg. (13.4)
Visibility9999 m
Phenomena:N/A
Clouds:Broken 007 Hf
Overcast 012 Hf
Ceiling700 ft
Temp07°C (ISA -8)
Dew Point07°C (100% RH)
AAT3.8°C
QNH1014 hPa
Density Alt-719 ft
Elevation115 ft
Report Wrong Elevation
Raw Report
PAPB 230553Z AUTO 18007KT 9SM BKN007 OVC012 07/07 A2994 RMK AO2
RAE13B22E27 CIG 004V010 SLP125 P0000 60008 T00720072 10089
20067 53002 TSNO=

Extra information for PAPB:More info

Metar Taf Metar & Taf Last 4 Metars F.Rules Stats Wind Profile Meteogram Temp Stats Airport Information Weather charts Add Link Nearby VenuesMetar ALERT Operation Metar Decoded Social comments

AIRNAV info for PAPB